sensor_id;sensor_type;location;lat;lon;timestamp;pressure;altitude;pressure_sealevel;temperature;humidity
29549;BME280;16487;53.094;8.800;2023-02-28T00:00:26;102485.06;;;4.40;100.00
29549;BME280;16487;53.094;8.800;2023-02-28T00:02:53;102480.72;;;4.39;100.00
29549;BME280;16487;53.094;8.800;2023-02-28T00:05:22;102490.13;;;4.38;100.00
29549;BME280;16487;53.094;8.800;2023-02-28T00:07:50;102507.88;;;4.37;100.00
29549;BME280;16487;53.094;8.800;2023-02-28T00:10:19;102520.13;;;4.40;100.00
29549;BME280;16487;53.094;8.800;2023-02-28T00:12:47;102518.63;;;4.42;100.00
29549;BME280;16487;53.094;8.800;2023-02-28T00:15:15;102527.81;;;4.46;100.00
29549;BME280;16487;53.094;8.800;2023-02-28T00:17:44;102525.13;;;4.50;100.00
29549;BME280;16487;53.094;8.800;2023-02-28T00:20:12;102485.69;;;4.49;100.00
29549;BME280;16487;53.094;8.800;2023-02-28T00:22:41;102498.59;;;4.45;100.00
29549;BME280;16487;53.094;8.800;2023-02-28T00:25:10;102493.16;;;4.49;100.00
29549;BME280;16487;53.094;8.800;2023-02-28T00:27:38;102503.75;;;4.47;100.00
29549;BME280;16487;53.094;8.800;2023-02-28T00:30:08;102494.31;;;4.48;100.00
29549;BME280;16487;53.094;8.800;2023-02-28T00:32:37;102515.31;;;4.52;100.00
29549;BME280;16487;53.094;8.800;2023-02-28T00:35:08;102523.59;;;4.52;100.00
29549;BME280;16487;53.094;8.800;2023-02-28T00:37:35;102543.66;;;4.49;100.00
29549;BME280;16487;53.094;8.800;2023-02-28T00:40:06;102538.84;;;4.46;100.00
29549;BME280;16487;53.094;8.800;2023-02-28T00:42:34;102550.59;;;4.43;100.00
29549;BME280;16487;53.094;8.800;2023-02-28T00:45:02;102579.53;;;4.34;100.00
29549;BME280;16487;53.094;8.800;2023-02-28T00:47:30;102624.06;;;4.32;100.00
29549;BME280;16487;53.094;8.800;2023-02-28T00:49:57;102610.19;;;4.29;100.00
29549;BME280;16487;53.094;8.800;2023-02-28T00:52:26;102642.13;;;4.30;100.00
29549;BME280;16487;53.094;8.800;2023-02-28T00:54:54;102654.69;;;4.27;100.00
29549;BME280;16487;53.094;8.800;2023-02-28T00:57:22;102661.09;;;4.31;100.00
29549;BME280;16487;53.094;8.800;2023-02-28T00:59:49;102662.06;;;4.23;100.00
29549;BME280;16487;53.094;8.800;2023-02-28T01:02:16;102665.72;;;4.27;100.00
29549;BME280;16487;53.094;8.800;2023-02-28T01:04:44;102668.22;;;4.32;100.00
29549;BME280;16487;53.094;8.800;2023-02-28T01:07:13;102653.16;;;4.30;100.00
29549;BME280;16487;53.094;8.800;2023-02-28T01:09:42;102685.94;;;4.31;100.00
29549;BME280;16487;53.094;8.800;2023-02-28T01:12:14;102684.50;;;4.22;100.00
29549;BME280;16487;53.094;8.800;2023-02-28T01:14:42;102687.41;;;4.13;100.00
29549;BME280;16487;53.094;8.800;2023-02-28T01:17:09;102655.81;;;4.26;100.00
29549;BME280;16487;53.094;8.800;2023-02-28T01:19:37;102662.41;;;4.22;100.00
29549;BME280;16487;53.094;8.800;2023-02-28T01:22:05;102679.78;;;4.22;100.00
29549;BME280;16487;53.094;8.800;2023-02-28T01:24:34;102674.94;;;4.19;100.00
29549;BME280;16487;53.094;8.800;2023-02-28T01:27:03;102674.50;;;4.17;100.00
29549;BME280;16487;53.094;8.800;2023-02-28T01:29:30;102690.63;;;4.15;100.00
29549;BME280;16487;53.094;8.800;2023-02-28T01:31:57;102716.25;;;4.16;100.00
29549;BME280;16487;53.094;8.800;2023-02-28T01:34:25;102726.16;;;4.17;100.00
29549;BME280;16487;53.094;8.800;2023-02-28T01:36:52;102714.41;;;4.20;100.00
29549;BME280;16487;53.094;8.800;2023-02-28T01:39:19;102719.09;;;4.19;100.00
29549;BME280;16487;53.094;8.800;2023-02-28T01:41:47;102738.69;;;4.14;100.00
29549;BME280;16487;53.094;8.800;2023-02-28T01:47:20;102723.28;;;4.13;100.00
29549;BME280;16487;53.094;8.800;2023-02-28T01:49:48;102737.97;;;4.17;100.00
29549;BME280;16487;53.094;8.800;2023-02-28T01:52:16;102752.00;;;4.12;100.00
29549;BME280;16487;53.094;8.800;2023-02-28T01:54:45;102786.28;;;4.11;100.00
29549;BME280;16487;53.094;8.800;2023-02-28T01:57:17;102776.84;;;4.12;100.00
29549;BME280;16487;53.094;8.800;2023-02-28T01:59:49;102782.13;;;4.17;100.00
29549;BME280;16487;53.094;8.800;2023-02-28T02:02:21;102788.03;;;4.04;100.00
29549;BME280;16487;53.094;8.800;2023-02-28T02:04:54;102787.47;;;4.10;100.00
29549;BME280;16487;53.094;8.800;2023-02-28T02:07:23;102765.84;;;4.00;100.00
29549;BME280;16487;53.094;8.800;2023-02-28T02:10:00;102759.66;;;4.03;100.00
29549;BME280;16487;53.094;8.800;2023-02-28T02:12:46;102738.25;;;4.00;100.00
29549;BME280;16487;53.094;8.800;2023-02-28T02:15:23;102744.97;;;3.87;100.00
29549;BME280;16487;53.094;8.800;2023-02-28T02:17:58;102752.53;;;3.90;100.00
29549;BME280;16487;53.094;8.800;2023-02-28T02:23:59;102746.34;;;3.81;100.00
29549;BME280;16487;53.094;8.800;2023-02-28T02:26:47;102756.25;;;3.82;100.00
29549;BME280;16487;53.094;8.800;2023-02-28T02:29:37;102753.03;;;3.80;100.00
29549;BME280;16487;53.094;8.800;2023-02-28T02:32:28;102770.41;;;3.69;100.00
29549;BME280;16487;53.094;8.800;2023-02-28T02:35:11;102785.34;;;3.68;100.00
29549;BME280;16487;53.094;8.800;2023-02-28T02:37:43;102782.81;;;3.63;100.00
29549;BME280;16487;53.094;8.800;2023-02-28T02:40:16;102769.03;;;3.63;100.00
29549;BME280;16487;53.094;8.800;2023-02-28T02:42:49;102776.25;;;3.55;100.00
29549;BME280;16487;53.094;8.800;2023-02-28T02:45:23;102779.38;;;3.53;100.00
29549;BME280;16487;53.094;8.800;2023-02-28T02:47:53;102776.50;;;3.50;100.00
29549;BME280;16487;53.094;8.800;2023-02-28T02:50:29;102762.28;;;3.48;100.00
29549;BME280;16487;53.094;8.800;2023-02-28T02:53:00;102767.34;;;3.46;100.00
29549;BME280;16487;53.094;8.800;2023-02-28T02:55:31;102766.19;;;3.47;100.00
29549;BME280;16487;53.094;8.800;2023-02-28T02:58:04;102761.81;;;3.46;100.00
29549;BME280;16487;53.094;8.800;2023-02-28T03:00:37;102771.09;;;3.41;100.00
29549;BME280;16487;53.094;8.800;2023-02-28T03:03:07;102756.09;;;3.39;100.00
29549;BME280;16487;53.094;8.800;2023-02-28T03:05:41;102771.69;;;3.35;100.00
29549;BME280;16487;53.094;8.800;2023-02-28T03:08:11;102758.97;;;3.30;100.00
29549;BME280;16487;53.094;8.800;2023-02-28T03:10:40;102762.06;;;3.29;100.00
29549;BME280;16487;53.094;8.800;2023-02-28T03:13:32;102750.22;;;3.28;100.00
29549;BME280;16487;53.094;8.800;2023-02-28T03:18:57;102767.53;;;3.17;100.00
29549;BME280;16487;53.094;8.800;2023-02-28T03:21:37;102774.22;;;3.16;100.00
29549;BME280;16487;53.094;8.800;2023-02-28T03:24:07;102776.97;;;3.16;100.00
29549;BME280;16487;53.094;8.800;2023-02-28T03:26:39;102764.47;;;3.06;100.00
29549;BME280;16487;53.094;8.800;2023-02-28T03:29:12;102753.75;;;3.05;100.00
29549;BME280;16487;53.094;8.800;2023-02-28T03:31:44;102730.25;;;3.07;100.00
29549;BME280;16487;53.094;8.800;2023-02-28T03:34:19;102714.88;;;3.06;100.00
29549;BME280;16487;53.094;8.800;2023-02-28T03:36:53;102696.72;;;3.05;100.00
29549;BME280;16487;53.094;8.800;2023-02-28T03:39:26;102693.50;;;3.03;100.00
29549;BME280;16487;53.094;8.800;2023-02-28T03:41:57;102693.38;;;2.88;100.00
29549;BME280;16487;53.094;8.800;2023-02-28T03:44:30;102677.56;;;2.97;100.00
29549;BME280;16487;53.094;8.800;2023-02-28T03:47:02;102675.03;;;2.92;100.00
29549;BME280;16487;53.094;8.800;2023-02-28T03:49:33;102691.56;;;2.92;100.00
29549;BME280;16487;53.094;8.800;2023-02-28T03:52:05;102696.13;;;2.88;100.00
29549;BME280;16487;53.094;8.800;2023-02-28T03:54:37;102691.09;;;2.78;100.00
29549;BME280;16487;53.094;8.800;2023-02-28T03:57:11;102684.66;;;2.74;100.00
29549;BME280;16487;53.094;8.800;2023-02-28T03:59:45;102686.72;;;2.65;100.00
29549;BME280;16487;53.094;8.800;2023-02-28T04:02:14;102677.19;;;2.62;100.00
29549;BME280;16487;53.094;8.800;2023-02-28T04:04:41;102670.75;;;2.58;100.00
29549;BME280;16487;53.094;8.800;2023-02-28T04:07:11;102658.03;;;2.54;100.00
29549;BME280;16487;53.094;8.800;2023-02-28T04:09:39;102652.31;;;2.59;100.00
29549;BME280;16487;53.094;8.800;2023-02-28T04:12:07;102655.75;;;2.56;100.00
29549;BME280;16487;53.094;8.800;2023-02-28T04:14:34;102660.09;;;2.57;100.00
29549;BME280;16487;53.094;8.800;2023-02-28T04:17:02;102668.13;;;2.62;100.00
29549;BME280;16487;53.094;8.800;2023-02-28T04:19:30;102669.28;;;2.61;100.00
29549;BME280;16487;53.094;8.800;2023-02-28T04:22:00;102668.59;;;2.64;100.00
29549;BME280;16487;53.094;8.800;2023-02-28T04:24:31;102672.16;;;2.64;100.00
29549;BME280;16487;53.094;8.800;2023-02-28T04:26:58;102675.84;;;2.68;100.00
29549;BME280;16487;53.094;8.800;2023-02-28T04:29:27;102688.78;;;2.68;100.00
29549;BME280;16487;53.094;8.800;2023-02-28T04:31:56;102690.38;;;2.57;100.00
29549;BME280;16487;53.094;8.800;2023-02-28T04:34:23;102680.97;;;2.58;100.00
29549;BME280;16487;53.094;8.800;2023-02-28T04:36:51;102671.22;;;2.60;100.00
29549;BME280;16487;53.094;8.800;2023-02-28T04:39:42;102656.44;;;2.65;100.00
29549;BME280;16487;53.094;8.800;2023-02-28T04:42:10;102649.53;;;2.59;100.00
29549;BME280;16487;53.094;8.800;2023-02-28T04:44:40;102653.47;;;2.58;100.00
29549;BME280;16487;53.094;8.800;2023-02-28T04:47:07;102640.16;;;2.60;100.00
29549;BME280;16487;53.094;8.800;2023-02-28T04:49:35;102636.03;;;2.66;100.00
29549;BME280;16487;53.094;8.800;2023-02-28T04:52:02;102617.00;;;2.61;100.00
29549;BME280;16487;53.094;8.800;2023-02-28T04:54:29;102614.47;;;2.56;100.00
29549;BME280;16487;53.094;8.800;2023-02-28T04:56:58;102621.56;;;2.57;100.00
29549;BME280;16487;53.094;8.800;2023-02-28T04:59:25;102605.97;;;2.49;100.00
29549;BME280;16487;53.094;8.800;2023-02-28T05:01:52;102599.66;;;2.48;100.00
29549;BME280;16487;53.094;8.800;2023-02-28T05:04:20;102614.22;;;2.37;100.00
29549;BME280;16487;53.094;8.800;2023-02-28T05:06:47;102608.47;;;2.42;100.00
29549;BME280;16487;53.094;8.800;2023-02-28T05:09:14;102619.97;;;2.44;100.00
29549;BME280;16487;53.094;8.800;2023-02-28T05:11:42;102611.47;;;2.49;100.00
29549;BME280;16487;53.094;8.800;2023-02-28T05:14:12;102598.88;;;2.48;100.00
29549;BME280;16487;53.094;8.800;2023-02-28T05:16:40;102608.50;;;2.54;100.00
29549;BME280;16487;53.094;8.800;2023-02-28T05:19:07;102612.72;;;2.39;100.00
29549;BME280;16487;53.094;8.800;2023-02-28T05:21:36;102602.06;;;2.38;100.00
29549;BME280;16487;53.094;8.800;2023-02-28T05:24:06;102591.97;;;2.42;100.00
29549;BME280;16487;53.094;8.800;2023-02-28T05:26:35;102606.88;;;2.28;100.00
29549;BME280;16487;53.094;8.800;2023-02-28T05:29:03;102592.91;;;2.33;100.00
29549;BME280;16487;53.094;8.800;2023-02-28T05:31:32;102596.75;;;2.20;100.00
29549;BME280;16487;53.094;8.800;2023-02-28T05:33:59;102578.88;;;2.14;100.00
29549;BME280;16487;53.094;8.800;2023-02-28T05:36:27;102575.75;;;2.04;100.00
29549;BME280;16487;53.094;8.800;2023-02-28T05:38:54;102577.00;;;2.06;100.00
29549;BME280;16487;53.094;8.800;2023-02-28T05:41:21;102570.38;;;1.95;100.00
29549;BME280;16487;53.094;8.800;2023-02-28T05:43:49;102556.84;;;1.90;100.00
29549;BME280;16487;53.094;8.800;2023-02-28T05:46:16;102538.25;;;1.87;100.00
29549;BME280;16487;53.094;8.800;2023-02-28T05:48:47;102521.97;;;1.82;100.00
29549;BME280;16487;53.094;8.800;2023-02-28T05:51:14;102502.72;;;1.70;100.00
29549;BME280;16487;53.094;8.800;2023-02-28T05:53:42;102477.50;;;1.68;100.00
29549;BME280;16487;53.094;8.800;2023-02-28T05:56:09;102456.91;;;1.62;100.00
29549;BME280;16487;53.094;8.800;2023-02-28T05:58:36;102436.28;;;1.56;100.00
29549;BME280;16487;53.094;8.800;2023-02-28T06:01:20;102413.63;;;1.59;100.00
29549;BME280;16487;53.094;8.800;2023-02-28T06:03:49;102393.34;;;1.52;100.00
29549;BME280;16487;53.094;8.800;2023-02-28T06:06:17;102376.75;;;1.48;100.00
29549;BME280;16487;53.094;8.800;2023-02-28T06:08:44;102345.38;;;1.37;100.00
29549;BME280;16487;53.094;8.800;2023-02-28T06:11:12;102321.00;;;1.36;100.00
29549;BME280;16487;53.094;8.800;2023-02-28T06:13:39;102300.97;;;1.35;100.00
29549;BME280;16487;53.094;8.800;2023-02-28T06:16:08;102285.06;;;1.29;100.00
29549;BME280;16487;53.094;8.800;2023-02-28T06:18:37;102266.63;;;1.29;100.00
29549;BME280;16487;53.094;8.800;2023-02-28T06:21:06;102257.47;;;1.25;100.00
29549;BME280;16487;53.094;8.800;2023-02-28T06:23:33;102246.72;;;1.20;100.00
29549;BME280;16487;53.094;8.800;2023-02-28T06:26:01;102246.97;;;1.15;100.00
29549;BME280;16487;53.094;8.800;2023-02-28T06:28:30;102254.63;;;1.09;100.00
29549;BME280;16487;53.094;8.800;2023-02-28T06:30:58;102230.03;;;1.13;100.00
29549;BME280;16487;53.094;8.800;2023-02-28T06:33:25;102221.00;;;1.12;100.00
29549;BME280;16487;53.094;8.800;2023-02-28T06:35:52;102221.19;;;0.95;100.00
29549;BME280;16487;53.094;8.800;2023-02-28T06:38:21;102195.94;;;0.90;100.00
29549;BME280;16487;53.094;8.800;2023-02-28T06:40:53;102155.69;;;0.94;100.00
29549;BME280;16487;53.094;8.800;2023-02-28T06:43:20;102152.94;;;1.06;100.00
29549;BME280;16487;53.094;8.800;2023-02-28T06:45:47;102145.84;;;1.05;100.00
29549;BME280;16487;53.094;8.800;2023-02-28T06:48:15;102130.06;;;1.02;100.00
29549;BME280;16487;53.094;8.800;2023-02-28T06:50:42;102119.75;;;1.11;100.00
29549;BME280;16487;53.094;8.800;2023-02-28T06:53:09;102113.13;;;1.12;100.00
29549;BME280;16487;53.094;8.800;2023-02-28T06:55:39;102104.66;;;1.17;100.00
29549;BME280;16487;53.094;8.800;2023-02-28T06:58:06;102114.13;;;1.19;100.00
29549;BME280;16487;53.094;8.800;2023-02-28T07:00:34;102131.41;;;1.20;100.00
29549;BME280;16487;53.094;8.800;2023-02-28T07:03:01;102144.09;;;1.37;100.00
29549;BME280;16487;53.094;8.800;2023-02-28T07:05:28;102146.28;;;1.31;100.00
29549;BME280;16487;53.094;8.800;2023-02-28T07:07:56;102144.34;;;1.32;100.00
29549;BME280;16487;53.094;8.800;2023-02-28T07:10:23;102127.38;;;1.42;100.00
29549;BME280;16487;53.094;8.800;2023-02-28T07:12:52;102164.66;;;1.43;100.00
29549;BME280;16487;53.094;8.800;2023-02-28T07:15:19;102167.53;;;1.46;100.00
29549;BME280;16487;53.094;8.800;2023-02-28T07:17:46;102182.88;;;1.47;100.00
29549;BME280;16487;53.094;8.800;2023-02-28T07:20:14;102204.59;;;1.52;100.00
29549;BME280;16487;53.094;8.800;2023-02-28T07:22:41;102208.34;;;1.60;100.00
29549;BME280;16487;53.094;8.800;2023-02-28T07:25:09;102211.19;;;1.63;100.00
29549;BME280;16487;53.094;8.800;2023-02-28T07:27:37;102228.84;;;1.62;100.00
29549;BME280;16487;53.094;8.800;2023-02-28T07:30:07;102263.88;;;1.65;100.00
29549;BME280;16487;53.094;8.800;2023-02-28T07:32:34;102288.47;;;1.74;100.00
29549;BME280;16487;53.094;8.800;2023-02-28T07:35:01;102308.16;;;1.76;100.00
29549;BME280;16487;53.094;8.800;2023-02-28T07:37:29;102330.16;;;1.76;100.00
29549;BME280;16487;53.094;8.800;2023-02-28T07:39:56;102349.75;;;1.74;100.00
29549;BME280;16487;53.094;8.800;2023-02-28T07:42:23;102367.03;;;1.75;100.00
29549;BME280;16487;53.094;8.800;2023-02-28T07:44:51;102381.78;;;1.82;100.00
29549;BME280;16487;53.094;8.800;2023-02-28T07:47:20;102391.44;;;1.88;100.00
29549;BME280;16487;53.094;8.800;2023-02-28T07:49:47;102399.44;;;1.93;100.00
29549;BME280;16487;53.094;8.800;2023-02-28T07:52:14;102405.41;;;1.95;100.00
29549;BME280;16487;53.094;8.800;2023-02-28T07:54:41;102409.50;;;2.01;100.00
29549;BME280;16487;53.094;8.800;2023-02-28T07:57:09;102422.56;;;2.04;100.00
29549;BME280;16487;53.094;8.800;2023-02-28T07:59:36;102425.09;;;2.09;100.00
29549;BME280;16487;53.094;8.800;2023-02-28T08:02:03;102406.06;;;2.28;100.00
29549;BME280;16487;53.094;8.800;2023-02-28T08:04:32;102440.19;;;2.40;100.00
29549;BME280;16487;53.094;8.800;2023-02-28T08:07:04;102471.94;;;2.49;100.00
29549;BME280;16487;53.094;8.800;2023-02-28T08:09:32;102516.63;;;2.58;100.00
29549;BME280;16487;53.094;8.800;2023-02-28T08:12:00;102543.38;;;2.58;100.00
29549;BME280;16487;53.094;8.800;2023-02-28T08:14:27;102566.63;;;2.60;100.00
29549;BME280;16487;53.094;8.800;2023-02-28T08:16:55;102577.75;;;2.64;100.00
29549;BME280;16487;53.094;8.800;2023-02-28T08:19:22;102605.28;;;2.88;100.00
29549;BME280;16487;53.094;8.800;2023-02-28T08:21:51;102651.06;;;3.04;100.00
29549;BME280;16487;53.094;8.800;2023-02-28T08:24:18;102691.09;;;3.14;100.00
29549;BME280;16487;53.094;8.800;2023-02-28T08:26:45;102755.28;;;3.26;100.00
29549;BME280;16487;53.094;8.800;2023-02-28T08:29:13;102784.78;;;3.26;100.00
29549;BME280;16487;53.094;8.800;2023-02-28T08:31:41;102819.69;;;3.34;100.00
29549;BME280;16487;53.094;8.800;2023-02-28T08:34:10;102841.41;;;3.35;100.00
29549;BME280;16487;53.094;8.800;2023-02-28T08:36:38;102887.69;;;3.42;100.00
29549;BME280;16487;53.094;8.800;2023-02-28T08:39:07;102921.00;;;3.49;100.00
29549;BME280;16487;53.094;8.800;2023-02-28T08:41:34;102958.47;;;3.62;100.00
29549;BME280;16487;53.094;8.800;2023-02-28T08:44:02;102971.25;;;3.67;100.00
29549;BME280;16487;53.094;8.800;2023-02-28T08:46:29;102981.44;;;3.66;100.00
29549;BME280;16487;53.094;8.800;2023-02-28T08:48:57;103024.88;;;3.69;100.00
29549;BME280;16487;53.094;8.800;2023-02-28T08:51:24;103045.38;;;3.80;100.00
29549;BME280;16487;53.094;8.800;2023-02-28T08:53:52;103072.78;;;3.97;100.00
29549;BME280;16487;53.094;8.800;2023-02-28T08:56:21;103109.56;;;4.01;100.00
29549;BME280;16487;53.094;8.800;2023-02-28T08:58:49;103117.16;;;4.04;100.00
29549;BME280;16487;53.094;8.800;2023-02-28T09:01:18;103136.72;;;4.11;100.00
29549;BME280;16487;53.094;8.800;2023-02-28T09:03:47;103152.34;;;4.07;100.00
29549;BME280;16487;53.094;8.800;2023-02-28T09:06:16;103165.41;;;4.19;100.00
29549;BME280;16487;53.094;8.800;2023-02-28T09:08:44;103175.97;;;4.17;100.00
29549;BME280;16487;53.094;8.800;2023-02-28T09:11:12;103187.78;;;4.17;100.00
29549;BME280;16487;53.094;8.800;2023-02-28T09:13:41;103214.09;;;4.35;100.00
29549;BME280;16487;53.094;8.800;2023-02-28T09:16:11;103232.94;;;4.33;100.00
29549;BME280;16487;53.094;8.800;2023-02-28T09:18:40;103237.38;;;4.46;100.00
29549;BME280;16487;53.094;8.800;2023-02-28T09:21:10;103248.66;;;4.53;100.00
29549;BME280;16487;53.094;8.800;2023-02-28T09:23:38;103263.84;;;4.59;100.00
29549;BME280;16487;53.094;8.800;2023-02-28T09:26:06;103277.91;;;4.66;100.00
29549;BME280;16487;53.094;8.800;2023-02-28T09:28:33;103288.25;;;4.57;100.00
29549;BME280;16487;53.094;8.800;2023-02-28T09:31:02;103309.34;;;4.62;100.00
29549;BME280;16487;53.094;8.800;2023-02-28T09:33:30;103305.13;;;4.89;100.00
29549;BME280;16487;53.094;8.800;2023-02-28T09:35:59;103310.66;;;4.89;100.00
29549;BME280;16487;53.094;8.800;2023-02-28T09:38:28;103324.69;;;4.84;100.00
29549;BME280;16487;53.094;8.800;2023-02-28T09:40:56;103326.28;;;4.73;100.00
29549;BME280;16487;53.094;8.800;2023-02-28T09:43:26;103327.13;;;4.85;100.00
29549;BME280;16487;53.094;8.800;2023-02-28T09:45:59;103330.91;;;4.81;100.00
29549;BME280;16487;53.094;8.800;2023-02-28T09:48:32;103334.41;;;4.90;100.00
29549;BME280;16487;53.094;8.800;2023-02-28T09:51:05;103343.38;;;4.99;100.00
29549;BME280;16487;53.094;8.800;2023-02-28T09:53:37;103337.22;;;5.26;100.00
29549;BME280;16487;53.094;8.800;2023-02-28T09:56:08;103338.38;;;5.37;100.00
29549;BME280;16487;53.094;8.800;2023-02-28T09:58:41;103346.00;;;5.40;100.00
29549;BME280;16487;53.094;8.800;2023-02-28T10:01:19;103341.84;;;5.34;100.00
29549;BME280;16487;53.094;8.800;2023-02-28T10:03:56;103337.72;;;5.52;100.00
29549;BME280;16487;53.094;8.800;2023-02-28T10:06:28;103342.09;;;5.53;100.00
29549;BME280;16487;53.094;8.800;2023-02-28T10:09:01;103335.97;;;5.59;100.00
29549;BME280;16487;53.094;8.800;2023-02-28T10:11:29;103343.47;;;5.59;100.00
29549;BME280;16487;53.094;8.800;2023-02-28T10:14:01;103343.94;;;5.61;100.00
29549;BME280;16487;53.094;8.800;2023-02-28T10:16:33;103349.56;;;5.64;100.00
29549;BME280;16487;53.094;8.800;2023-02-28T10:19:09;103344.28;;;5.83;100.00
29549;BME280;16487;53.094;8.800;2023-02-28T10:21:43;103346.28;;;5.83;100.00
29549;BME280;16487;53.094;8.800;2023-02-28T10:24:19;103347.38;;;5.58;100.00
29549;BME280;16487;53.094;8.800;2023-02-28T10:26:48;103347.16;;;5.99;100.00
29549;BME280;16487;53.094;8.800;2023-02-28T10:29:15;103347.41;;;6.46;100.00
29549;BME280;16487;53.094;8.800;2023-02-28T10:31:42;103336.91;;;8.61;100.00
29549;BME280;16487;53.094;8.800;2023-02-28T10:34:12;103333.97;;;9.14;100.00
29549;BME280;16487;53.094;8.800;2023-02-28T10:36:41;103337.19;;;10.14;100.00
29549;BME280;16487;53.094;8.800;2023-02-28T10:39:34;103319.78;;;10.87;100.00
29549;BME280;16487;53.094;8.800;2023-02-28T10:42:02;103308.84;;;12.16;100.00
29549;BME280;16487;53.094;8.800;2023-02-28T10:44:29;103315.41;;;11.29;100.00
29549;BME280;16487;53.094;8.800;2023-02-28T10:46:57;103314.47;;;11.15;100.00
29549;BME280;16487;53.094;8.800;2023-02-28T10:49:27;103304.78;;;11.45;100.00
29549;BME280;16487;53.094;8.800;2023-02-28T10:51:57;103315.22;;;10.38;100.00
29549;BME280;16487;53.094;8.800;2023-02-28T10:54:27;103311.44;;;10.54;100.00
29549;BME280;16487;53.094;8.800;2023-02-28T10:57:17;103316.75;;;9.28;100.00
29549;BME280;16487;53.094;8.800;2023-02-28T10:59:46;103320.03;;;9.86;100.00
29549;BME280;16487;53.094;8.800;2023-02-28T11:02:32;103314.38;;;10.34;100.00
29549;BME280;16487;53.094;8.800;2023-02-28T11:05:02;103321.34;;;10.51;100.00
29549;BME280;16487;53.094;8.800;2023-02-28T11:07:29;103316.75;;;10.06;100.00
29549;BME280;16487;53.094;8.800;2023-02-28T11:10:20;103302.34;;;10.97;100.00
29549;BME280;16487;53.094;8.800;2023-02-28T11:12:48;103311.34;;;10.17;100.00
29549;BME280;16487;53.094;8.800;2023-02-28T11:15:23;103309.81;;;10.19;100.00
29549;BME280;16487;53.094;8.800;2023-02-28T11:17:56;103306.16;;;10.45;100.00
29549;BME280;16487;53.094;8.800;2023-02-28T11:20:28;103309.38;;;10.17;100.00
29549;BME280;16487;53.094;8.800;2023-02-28T11:22:58;103308.34;;;9.77;100.00
29549;BME280;16487;53.094;8.800;2023-02-28T11:25:30;103296.03;;;11.07;100.00
29549;BME280;16487;53.094;8.800;2023-02-28T11:28:00;103286.59;;;11.66;100.00
29549;BME280;16487;53.094;8.800;2023-02-28T11:30:33;103290.88;;;10.69;100.00
29549;BME280;16487;53.094;8.800;2023-02-28T11:33:21;103278.50;;;12.18;100.00
29549;BME280;16487;53.094;8.800;2023-02-28T11:35:51;103270.03;;;12.01;100.00
29549;BME280;16487;53.094;8.800;2023-02-28T11:38:19;103263.53;;;12.86;100.00
29549;BME280;16487;53.094;8.800;2023-02-28T11:40:53;103267.47;;;12.53;100.00
29549;BME280;16487;53.094;8.800;2023-02-28T11:43:37;103267.28;;;12.08;100.00
29549;BME280;16487;53.094;8.800;2023-02-28T11:46:19;103262.72;;;12.82;100.00
29549;BME280;16487;53.094;8.800;2023-02-28T11:48:57;103257.19;;;13.10;100.00
29549;BME280;16487;53.094;8.800;2023-02-28T11:51:33;103271.50;;;12.70;100.00
29549;BME280;16487;53.094;8.800;2023-02-28T11:54:24;103260.41;;;13.19;100.00
29549;BME280;16487;53.094;8.800;2023-02-28T11:57:00;103259.53;;;12.98;100.00
29549;BME280;16487;53.094;8.800;2023-02-28T11:59:51;103260.06;;;10.95;100.00
29549;BME280;16487;53.094;8.800;2023-02-28T12:02:25;103229.56;;;13.37;100.00
29549;BME280;16487;53.094;8.800;2023-02-28T12:05:05;103246.63;;;12.37;100.00
29549;BME280;16487;53.094;8.800;2023-02-28T12:07:47;103241.88;;;12.48;100.00
29549;BME280;16487;53.094;8.800;2023-02-28T12:10:21;103244.38;;;13.09;100.00
29549;BME280;16487;53.094;8.800;2023-02-28T12:13:03;103236.75;;;12.99;100.00
29549;BME280;16487;53.094;8.800;2023-02-28T12:16:00;103223.50;;;13.63;100.00
29549;BME280;16487;53.094;8.800;2023-02-28T12:18:47;103216.50;;;14.17;100.00
29549;BME280;16487;53.094;8.800;2023-02-28T12:21:25;103204.34;;;12.91;100.00
29549;BME280;16487;53.094;8.800;2023-02-28T12:24:14;103199.25;;;14.18;100.00
29549;BME280;16487;53.094;8.800;2023-02-28T12:26:49;103217.88;;;12.50;100.00
29549;BME280;16487;53.094;8.800;2023-02-28T12:29:21;103201.16;;;13.38;100.00
29549;BME280;16487;53.094;8.800;2023-02-28T12:31:54;103205.94;;;12.78;100.00
29549;BME280;16487;53.094;8.800;2023-02-28T12:34:28;103185.88;;;13.64;100.00
29549;BME280;16487;53.094;8.800;2023-02-28T12:37:01;103200.34;;;12.78;100.00
29549;BME280;16487;53.094;8.800;2023-02-28T12:39:35;103194.78;;;13.24;100.00
29549;BME280;16487;53.094;8.800;2023-02-28T12:42:19;103189.16;;;13.34;100.00
29549;BME280;16487;53.094;8.800;2023-02-28T12:44:52;103183.53;;;13.34;100.00
29549;BME280;16487;53.094;8.800;2023-02-28T12:47:21;103178.31;;;13.50;100.00
29549;BME280;16487;53.094;8.800;2023-02-28T12:49:51;103188.38;;;13.16;100.00
29549;BME280;16487;53.094;8.800;2023-02-28T12:52:24;103180.31;;;13.46;100.00
29549;BME280;16487;53.094;8.800;2023-02-28T12:54:58;103159.84;;;13.63;100.00
29549;BME280;16487;53.094;8.800;2023-02-28T12:57:34;103174.66;;;13.67;100.00
29549;BME280;16487;53.094;8.800;2023-02-28T13:00:08;103157.84;;;13.67;100.00
29549;BME280;16487;53.094;8.800;2023-02-28T13:02:53;103159.94;;;13.25;100.00
29549;BME280;16487;53.094;8.800;2023-02-28T13:05:56;103150.75;;;13.24;100.00
29549;BME280;16487;53.094;8.800;2023-02-28T13:11:41;103151.34;;;13.92;100.00
29549;BME280;16487;53.094;8.800;2023-02-28T13:14:27;103150.75;;;13.28;100.00
29549;BME280;16487;53.094;8.800;2023-02-28T13:17:11;103142.78;;;14.20;100.00
29549;BME280;16487;53.094;8.800;2023-02-28T13:19:41;103137.06;;;13.47;100.00